sensor_id;sensor_type;location;lat;lon;timestamp;P1;durP1;ratioP1;P2;durP2;ratioP2
69369;SDS011;56530;42.640;23.372;2023-07-08T00:00:23;13.48;;;12.18;;
69369;SDS011;56530;42.640;23.372;2023-07-08T00:02:50;13.77;;;12.07;;
69369;SDS011;56530;42.640;23.372;2023-07-08T00:05:17;14.77;;;13.18;;
69369;SDS011;56530;42.640;23.372;2023-07-08T00:07:43;15.80;;;13.27;;
69369;SDS011;56530;42.640;23.372;2023-07-08T00:12:34;14.07;;;12.33;;
69369;SDS011;56530;42.640;23.372;2023-07-08T00:15:00;14.77;;;13.37;;
69369;SDS011;56530;42.640;23.372;2023-07-08T00:17:25;14.67;;;13.23;;
69369;SDS011;56530;42.640;23.372;2023-07-08T00:19:51;16.10;;;13.07;;
69369;SDS011;56530;42.640;23.372;2023-07-08T00:22:19;17.05;;;13.90;;
69369;SDS011;56530;42.640;23.372;2023-07-08T00:24:44;15.13;;;13.18;;
69369;SDS011;56530;42.640;23.372;2023-07-08T00:27:10;14.90;;;13.57;;
69369;SDS011;56530;42.640;23.372;2023-07-08T00:29:37;14.50;;;13.00;;
69369;SDS011;56530;42.640;23.372;2023-07-08T00:32:08;15.23;;;13.43;;
69369;SDS011;56530;42.640;23.372;2023-07-08T00:34:35;15.10;;;13.52;;
69369;SDS011;56530;42.640;23.372;2023-07-08T00:37:01;16.43;;;13.10;;
69369;SDS011;56530;42.640;23.372;2023-07-08T00:39:30;17.33;;;13.07;;
69369;SDS011;56530;42.640;23.372;2023-07-08T00:41:55;15.00;;;13.03;;
69369;SDS011;56530;42.640;23.372;2023-07-08T00:44:21;15.68;;;13.45;;
69369;SDS011;56530;42.640;23.372;2023-07-08T00:46:49;15.10;;;13.48;;
69369;SDS011;56530;42.640;23.372;2023-07-08T00:49:23;13.90;;;12.60;;
69369;SDS011;56530;42.640;23.372;2023-07-08T00:51:52;15.18;;;12.68;;
69369;SDS011;56530;42.640;23.372;2023-07-08T00:54:18;13.50;;;12.30;;
69369;SDS011;56530;42.640;23.372;2023-07-08T00:56:55;13.67;;;12.33;;
69369;SDS011;56530;42.640;23.372;2023-07-08T00:59:25;13.57;;;12.25;;
69369;SDS011;56530;42.640;23.372;2023-07-08T01:02:02;13.38;;;12.13;;
69369;SDS011;56530;42.640;23.372;2023-07-08T01:04:33;16.90;;;11.93;;
69369;SDS011;56530;42.640;23.372;2023-07-08T01:07:02;14.80;;;11.90;;
69369;SDS011;56530;42.640;23.372;2023-07-08T01:09:33;14.23;;;12.40;;
69369;SDS011;56530;42.640;23.372;2023-07-08T01:12:02;13.35;;;12.05;;
69369;SDS011;56530;42.640;23.372;2023-07-08T01:14:31;14.85;;;12.43;;
69369;SDS011;56530;42.640;23.372;2023-07-08T01:16:58;14.55;;;12.55;;
69369;SDS011;56530;42.640;23.372;2023-07-08T01:19:23;13.47;;;12.27;;
69369;SDS011;56530;42.640;23.372;2023-07-08T01:24:23;13.02;;;11.55;;
69369;SDS011;56530;42.640;23.372;2023-07-08T01:26:49;13.75;;;11.70;;
69369;SDS011;56530;42.640;23.372;2023-07-08T01:29:14;13.45;;;11.85;;
69369;SDS011;56530;42.640;23.372;2023-07-08T01:31:40;12.63;;;11.43;;
69369;SDS011;56530;42.640;23.372;2023-07-08T01:34:07;15.57;;;11.50;;
69369;SDS011;56530;42.640;23.372;2023-07-08T01:36:37;13.85;;;11.95;;
69369;SDS011;56530;42.640;23.372;2023-07-08T01:39:09;15.03;;;12.37;;
69369;SDS011;56530;42.640;23.372;2023-07-08T01:41:39;12.65;;;11.38;;
69369;SDS011;56530;42.640;23.372;2023-07-08T01:44:04;15.00;;;11.85;;
69369;SDS011;56530;42.640;23.372;2023-07-08T01:46:30;13.00;;;11.75;;
69369;SDS011;56530;42.640;23.372;2023-07-08T01:48:57;14.18;;;11.30;;
69369;SDS011;56530;42.640;23.372;2023-07-08T01:51:25;12.88;;;11.32;;
69369;SDS011;56530;42.640;23.372;2023-07-08T01:53:51;13.00;;;11.63;;
69369;SDS011;56530;42.640;23.372;2023-07-08T01:56:17;12.80;;;11.50;;
69369;SDS011;56530;42.640;23.372;2023-07-08T01:58:42;12.13;;;10.57;;
69369;SDS011;56530;42.640;23.372;2023-07-08T02:01:08;12.90;;;11.10;;
69369;SDS011;56530;42.640;23.372;2023-07-08T02:03:34;11.60;;;10.43;;
69369;SDS011;56530;42.640;23.372;2023-07-08T02:05:59;12.13;;;10.85;;
69369;SDS011;56530;42.640;23.372;2023-07-08T02:08:25;12.38;;;11.07;;
69369;SDS011;56530;42.640;23.372;2023-07-08T02:10:51;13.43;;;10.38;;
69369;SDS011;56530;42.640;23.372;2023-07-08T02:13:18;11.98;;;10.88;;
69369;SDS011;56530;42.640;23.372;2023-07-08T02:15:44;11.80;;;10.05;;
69369;SDS011;56530;42.640;23.372;2023-07-08T02:18:09;11.63;;;10.57;;
69369;SDS011;56530;42.640;23.372;2023-07-08T02:20:35;13.83;;;11.10;;
69369;SDS011;56530;42.640;23.372;2023-07-08T02:23:00;11.70;;;10.50;;
69369;SDS011;56530;42.640;23.372;2023-07-08T02:25:25;13.30;;;10.93;;
69369;SDS011;56530;42.640;23.372;2023-07-08T02:27:51;11.07;;;9.97;;
69369;SDS011;56530;42.640;23.372;2023-07-08T02:30:19;10.95;;;9.88;;
69369;SDS011;56530;42.640;23.372;2023-07-08T02:32:45;10.70;;;9.60;;
69369;SDS011;56530;42.640;23.372;2023-07-08T02:35:13;11.15;;;10.15;;
69369;SDS011;56530;42.640;23.372;2023-07-08T02:37:39;11.48;;;10.27;;
69369;SDS011;56530;42.640;23.372;2023-07-08T02:40:04;12.95;;;10.25;;
69369;SDS011;56530;42.640;23.372;2023-07-08T02:42:31;14.73;;;11.02;;
69369;SDS011;56530;42.640;23.372;2023-07-08T02:44:56;11.27;;;10.07;;
69369;SDS011;56530;42.640;23.372;2023-07-08T02:47:22;11.23;;;10.20;;
69369;SDS011;56530;42.640;23.372;2023-07-08T02:49:47;11.97;;;10.37;;
69369;SDS011;56530;42.640;23.372;2023-07-08T02:52:12;12.03;;;10.77;;
69369;SDS011;56530;42.640;23.372;2023-07-08T02:54:38;13.30;;;11.02;;
69369;SDS011;56530;42.640;23.372;2023-07-08T02:57:03;11.55;;;10.45;;
69369;SDS011;56530;42.640;23.372;2023-07-08T02:59:29;12.75;;;10.52;;
69369;SDS011;56530;42.640;23.372;2023-07-08T03:01:54;12.23;;;10.40;;
69369;SDS011;56530;42.640;23.372;2023-07-08T03:04:19;12.90;;;10.40;;
69369;SDS011;56530;42.640;23.372;2023-07-08T03:06:47;11.15;;;10.13;;
69369;SDS011;56530;42.640;23.372;2023-07-08T03:09:15;14.60;;;10.80;;
69369;SDS011;56530;42.640;23.372;2023-07-08T03:11:40;10.70;;;9.80;;
69369;SDS011;56530;42.640;23.372;2023-07-08T03:14:05;9.97;;;9.00;;
69369;SDS011;56530;42.640;23.372;2023-07-08T03:16:31;10.83;;;9.83;;
69369;SDS011;56530;42.640;23.372;2023-07-08T03:18:57;11.18;;;10.07;;
69369;SDS011;56530;42.640;23.372;2023-07-08T03:21:23;10.27;;;9.27;;
69369;SDS011;56530;42.640;23.372;2023-07-08T03:23:49;10.30;;;8.53;;
69369;SDS011;56530;42.640;23.372;2023-07-08T03:26:18;15.32;;;9.00;;
69369;SDS011;56530;42.640;23.372;2023-07-08T03:28:46;10.45;;;8.35;;
69369;SDS011;56530;42.640;23.372;2023-07-08T03:31:12;9.13;;;8.18;;
69369;SDS011;56530;42.640;23.372;2023-07-08T03:33:37;9.40;;;8.03;;
69369;SDS011;56530;42.640;23.372;2023-07-08T03:36:24;8.23;;;6.83;;
69369;SDS011;56530;42.640;23.372;2023-07-08T03:38:52;9.35;;;6.85;;
69369;SDS011;56530;42.640;23.372;2023-07-08T03:41:18;8.10;;;6.73;;
69369;SDS011;56530;42.640;23.372;2023-07-08T03:43:44;7.35;;;6.60;;
69369;SDS011;56530;42.640;23.372;2023-07-08T03:46:10;7.50;;;6.70;;
69369;SDS011;56530;42.640;23.372;2023-07-08T03:48:36;7.22;;;6.15;;
69369;SDS011;56530;42.640;23.372;2023-07-08T03:51:02;11.52;;;6.85;;
69369;SDS011;56530;42.640;23.372;2023-07-08T03:53:28;8.23;;;6.80;;
69369;SDS011;56530;42.640;23.372;2023-07-08T03:55:53;12.73;;;7.20;;
69369;SDS011;56530;42.640;23.372;2023-07-08T03:58:19;8.80;;;6.28;;
69369;SDS011;56530;42.640;23.372;2023-07-08T04:00:44;15.07;;;7.23;;
69369;SDS011;56530;42.640;23.372;2023-07-08T04:03:10;9.60;;;6.40;;
69369;SDS011;56530;42.640;23.372;2023-07-08T04:05:36;8.03;;;6.70;;
69369;SDS011;56530;42.640;23.372;2023-07-08T04:08:02;11.53;;;6.63;;
69369;SDS011;56530;42.640;23.372;2023-07-08T04:10:27;7.57;;;6.20;;
69369;SDS011;56530;42.640;23.372;2023-07-08T04:12:52;6.77;;;6.17;;
69369;SDS011;56530;42.640;23.372;2023-07-08T04:15:18;8.77;;;6.27;;
69369;SDS011;56530;42.640;23.372;2023-07-08T04:17:47;8.63;;;6.03;;
69369;SDS011;56530;42.640;23.372;2023-07-08T04:20:14;6.35;;;5.32;;
69369;SDS011;56530;42.640;23.372;2023-07-08T04:22:41;7.82;;;5.82;;
69369;SDS011;56530;42.640;23.372;2023-07-08T04:25:06;10.25;;;5.78;;
69369;SDS011;56530;42.640;23.372;2023-07-08T04:27:32;8.30;;;5.80;;
69369;SDS011;56530;42.640;23.372;2023-07-08T04:29:58;7.57;;;5.85;;
69369;SDS011;56530;42.640;23.372;2023-07-08T04:32:23;7.07;;;6.20;;
69369;SDS011;56530;42.640;23.372;2023-07-08T04:34:50;9.23;;;5.90;;
69369;SDS011;56530;42.640;23.372;2023-07-08T04:37:16;9.75;;;6.88;;
69369;SDS011;56530;42.640;23.372;2023-07-08T04:39:41;6.80;;;5.70;;
69369;SDS011;56530;42.640;23.372;2023-07-08T04:42:07;8.48;;;6.50;;
69369;SDS011;56530;42.640;23.372;2023-07-08T04:44:32;7.83;;;6.60;;
69369;SDS011;56530;42.640;23.372;2023-07-08T04:46:58;9.57;;;6.83;;
69369;SDS011;56530;42.640;23.372;2023-07-08T04:49:24;7.47;;;6.77;;
69369;SDS011;56530;42.640;23.372;2023-07-08T04:51:50;7.75;;;6.50;;
69369;SDS011;56530;42.640;23.372;2023-07-08T04:54:16;7.38;;;5.95;;
69369;SDS011;56530;42.640;23.372;2023-07-08T04:56:42;7.75;;;6.95;;
69369;SDS011;56530;42.640;23.372;2023-07-08T04:59:13;9.67;;;6.50;;
69369;SDS011;56530;42.640;23.372;2023-07-08T05:01:40;7.70;;;5.97;;
69369;SDS011;56530;42.640;23.372;2023-07-08T05:04:06;6.95;;;6.38;;
69369;SDS011;56530;42.640;23.372;2023-07-08T05:06:33;8.52;;;6.20;;
69369;SDS011;56530;42.640;23.372;2023-07-08T05:08:59;9.25;;;6.43;;
69369;SDS011;56530;42.640;23.372;2023-07-08T05:11:25;6.87;;;6.27;;
69369;SDS011;56530;42.640;23.372;2023-07-08T05:13:50;9.90;;;7.10;;
69369;SDS011;56530;42.640;23.372;2023-07-08T05:16:16;7.87;;;6.10;;
69369;SDS011;56530;42.640;23.372;2023-07-08T05:18:42;7.13;;;6.45;;
69369;SDS011;56530;42.640;23.372;2023-07-08T05:21:08;9.00;;;7.13;;
69369;SDS011;56530;42.640;23.372;2023-07-08T05:23:34;7.28;;;6.35;;
69369;SDS011;56530;42.640;23.372;2023-07-08T05:26:00;10.67;;;6.80;;
69369;SDS011;56530;42.640;23.372;2023-07-08T05:28:27;11.13;;;6.72;;
69369;SDS011;56530;42.640;23.372;2023-07-08T05:30:53;6.70;;;6.07;;
69369;SDS011;56530;42.640;23.372;2023-07-08T05:33:23;6.15;;;5.55;;
69369;SDS011;56530;42.640;23.372;2023-07-08T05:35:50;8.75;;;6.05;;
69369;SDS011;56530;42.640;23.372;2023-07-08T05:38:16;8.35;;;5.88;;
69369;SDS011;56530;42.640;23.372;2023-07-08T05:40:41;6.23;;;5.70;;
69369;SDS011;56530;42.640;23.372;2023-07-08T05:43:07;7.73;;;7.00;;
69369;SDS011;56530;42.640;23.372;2023-07-08T05:45:32;7.47;;;6.03;;
69369;SDS011;56530;42.640;23.372;2023-07-08T05:48:00;7.32;;;6.35;;
69369;SDS011;56530;42.640;23.372;2023-07-08T05:50:25;7.23;;;6.20;;
69369;SDS011;56530;42.640;23.372;2023-07-08T05:52:50;6.73;;;6.03;;
69369;SDS011;56530;42.640;23.372;2023-07-08T05:55:16;13.13;;;7.87;;
69369;SDS011;56530;42.640;23.372;2023-07-08T05:57:41;7.00;;;6.10;;
69369;SDS011;56530;42.640;23.372;2023-07-08T06:00:08;9.43;;;6.93;;
69369;SDS011;56530;42.640;23.372;2023-07-08T06:02:35;6.85;;;6.20;;
69369;SDS011;56530;42.640;23.372;2023-07-08T06:05:01;7.32;;;6.63;;
69369;SDS011;56530;42.640;23.372;2023-07-08T06:07:27;6.80;;;6.20;;
69369;SDS011;56530;42.640;23.372;2023-07-08T06:09:52;8.50;;;6.70;;
69369;SDS011;56530;42.640;23.372;2023-07-08T06:12:20;13.20;;;6.65;;
69369;SDS011;56530;42.640;23.372;2023-07-08T06:14:46;7.05;;;5.63;;
69369;SDS011;56530;42.640;23.372;2023-07-08T06:17:11;8.88;;;6.32;;
69369;SDS011;56530;42.640;23.372;2023-07-08T06:19:37;7.80;;;6.70;;
69369;SDS011;56530;42.640;23.372;2023-07-08T06:22:02;7.97;;;6.80;;
69369;SDS011;56530;42.640;23.372;2023-07-08T06:24:28;7.23;;;6.53;;
69369;SDS011;56530;42.640;23.372;2023-07-08T06:26:53;10.30;;;6.77;;
69369;SDS011;56530;42.640;23.372;2023-07-08T06:29:19;8.50;;;6.57;;
69369;SDS011;56530;42.640;23.372;2023-07-08T06:31:44;8.13;;;6.63;;
69369;SDS011;56530;42.640;23.372;2023-07-08T06:34:10;7.40;;;6.53;;
69369;SDS011;56530;42.640;23.372;2023-07-08T06:36:35;12.13;;;7.13;;
69369;SDS011;56530;42.640;23.372;2023-07-08T06:39:00;9.90;;;6.88;;
69369;SDS011;56530;42.640;23.372;2023-07-08T06:41:26;8.60;;;6.40;;
69369;SDS011;56530;42.640;23.372;2023-07-08T06:43:51;12.53;;;7.37;;
69369;SDS011;56530;42.640;23.372;2023-07-08T06:46:17;7.22;;;6.40;;
69369;SDS011;56530;42.640;23.372;2023-07-08T06:48:44;9.40;;;6.43;;
69369;SDS011;56530;42.640;23.372;2023-07-08T06:51:09;9.20;;;6.70;;
69369;SDS011;56530;42.640;23.372;2023-07-08T06:53:34;8.67;;;6.50;;
69369;SDS011;56530;42.640;23.372;2023-07-08T06:56:00;8.63;;;6.20;;
69369;SDS011;56530;42.640;23.372;2023-07-08T06:58:27;7.93;;;5.60;;
69369;SDS011;56530;42.640;23.372;2023-07-08T07:00:52;10.83;;;6.30;;
69369;SDS011;56530;42.640;23.372;2023-07-08T07:03:18;7.50;;;6.18;;
69369;SDS011;56530;42.640;23.372;2023-07-08T07:05:44;7.85;;;6.35;;
69369;SDS011;56530;42.640;23.372;2023-07-08T07:08:09;11.63;;;6.90;;
69369;SDS011;56530;42.640;23.372;2023-07-08T07:10:34;8.87;;;6.10;;
69369;SDS011;56530;42.640;23.372;2023-07-08T07:13:00;8.57;;;6.90;;
69369;SDS011;56530;42.640;23.372;2023-07-08T07:15:26;9.40;;;5.83;;
69369;SDS011;56530;42.640;23.372;2023-07-08T07:17:51;7.50;;;6.80;;
69369;SDS011;56530;42.640;23.372;2023-07-08T07:20:16;10.87;;;6.40;;
69369;SDS011;56530;42.640;23.372;2023-07-08T07:22:42;10.35;;;6.20;;
69369;SDS011;56530;42.640;23.372;2023-07-08T07:25:08;7.00;;;6.28;;
69369;SDS011;56530;42.640;23.372;2023-07-08T07:27:33;8.70;;;6.55;;
69369;SDS011;56530;42.640;23.372;2023-07-08T07:29:59;7.00;;;6.30;;
69369;SDS011;56530;42.640;23.372;2023-07-08T07:32:24;8.75;;;6.47;;
69369;SDS011;56530;42.640;23.372;2023-07-08T07:34:50;6.80;;;6.20;;
69369;SDS011;56530;42.640;23.372;2023-07-08T07:37:17;9.47;;;7.00;;
69369;SDS011;56530;42.640;23.372;2023-07-08T07:39:44;8.45;;;6.22;;
69369;SDS011;56530;42.640;23.372;2023-07-08T07:42:09;8.32;;;7.38;;
69369;SDS011;56530;42.640;23.372;2023-07-08T07:44:36;10.10;;;6.68;;
69369;SDS011;56530;42.640;23.372;2023-07-08T07:47:03;11.30;;;9.77;;
69369;SDS011;56530;42.640;23.372;2023-07-08T07:49:29;8.27;;;7.45;;
69369;SDS011;56530;42.640;23.372;2023-07-08T07:51:54;7.87;;;6.57;;
69369;SDS011;56530;42.640;23.372;2023-07-08T07:54:20;7.15;;;6.47;;
69369;SDS011;56530;42.640;23.372;2023-07-08T07:56:46;16.13;;;11.10;;
69369;SDS011;56530;42.640;23.372;2023-07-08T07:59:11;9.80;;;6.87;;
69369;SDS011;56530;42.640;23.372;2023-07-08T08:01:37;8.67;;;6.20;;
69369;SDS011;56530;42.640;23.372;2023-07-08T08:04:02;9.02;;;7.82;;
69369;SDS011;56530;42.640;23.372;2023-07-08T08:06:28;11.45;;;7.13;;
69369;SDS011;56530;42.640;23.372;2023-07-08T08:08:53;7.60;;;6.73;;
69369;SDS011;56530;42.640;23.372;2023-07-08T08:11:19;9.73;;;6.13;;
69369;SDS011;56530;42.640;23.372;2023-07-08T08:13:45;6.60;;;6.00;;
69369;SDS011;56530;42.640;23.372;2023-07-08T08:16:10;10.38;;;6.97;;
69369;SDS011;56530;42.640;23.372;2023-07-08T08:18:35;6.53;;;5.93;;
69369;SDS011;56530;42.640;23.372;2023-07-08T08:21:01;8.23;;;5.80;;
69369;SDS011;56530;42.640;23.372;2023-07-08T08:23:26;7.33;;;5.97;;
69369;SDS011;56530;42.640;23.372;2023-07-08T08:25:51;11.37;;;6.30;;
69369;SDS011;56530;42.640;23.372;2023-07-08T08:28:17;8.80;;;6.30;;
69369;SDS011;56530;42.640;23.372;2023-07-08T08:30:46;8.88;;;5.90;;
69369;SDS011;56530;42.640;23.372;2023-07-08T08:33:12;6.53;;;5.65;;
69369;SDS011;56530;42.640;23.372;2023-07-08T08:35:37;7.80;;;6.10;;
69369;SDS011;56530;42.640;23.372;2023-07-08T08:38:03;8.23;;;6.53;;
69369;SDS011;56530;42.640;23.372;2023-07-08T08:40:29;7.22;;;6.50;;
69369;SDS011;56530;42.640;23.372;2023-07-08T08:45:35;8.10;;;5.90;;
69369;SDS011;56530;42.640;23.372;2023-07-08T08:48:08;6.50;;;5.93;;
69369;SDS011;56530;42.640;23.372;2023-07-08T08:50:41;7.85;;;6.43;;
69369;SDS011;56530;42.640;23.372;2023-07-08T08:53:13;8.27;;;5.57;;
69369;SDS011;56530;42.640;23.372;2023-07-08T08:55:40;6.70;;;5.90;;
69369;SDS011;56530;42.640;23.372;2023-07-08T09:00:55;6.82;;;6.13;;
69369;SDS011;56530;42.640;23.372;2023-07-08T09:06:07;8.52;;;5.80;;
69369;SDS011;56530;42.640;23.372;2023-07-08T09:08:40;6.75;;;6.10;;
69369;SDS011;56530;42.640;23.372;2023-07-08T09:11:23;6.97;;;6.05;;
69369;SDS011;56530;42.640;23.372;2023-07-08T09:13:54;6.80;;;6.18;;
69369;SDS011;56530;42.640;23.372;2023-07-08T09:16:26;7.18;;;6.47;;
69369;SDS011;56530;42.640;23.372;2023-07-08T09:19:22;7.15;;;6.00;;
69369;SDS011;56530;42.640;23.372;2023-07-08T09:21:52;7.03;;;6.18;;
69369;SDS011;56530;42.640;23.372;2023-07-08T09:27:02;8.93;;;5.85;;
69369;SDS011;56530;42.640;23.372;2023-07-08T09:29:28;8.75;;;6.70;;
69369;SDS011;56530;42.640;23.372;2023-07-08T09:31:54;6.47;;;5.88;;
69369;SDS011;56530;42.640;23.372;2023-07-08T09:34:23;7.40;;;5.78;;
69369;SDS011;56530;42.640;23.372;2023-07-08T09:36:50;7.38;;;6.57;;
69369;SDS011;56530;42.640;23.372;2023-07-08T09:39:17;7.38;;;5.97;;
69369;SDS011;56530;42.640;23.372;2023-07-08T09:41:46;12.98;;;6.45;;
69369;SDS011;56530;42.640;23.372;2023-07-08T09:46:41;7.15;;;5.88;;
69369;SDS011;56530;42.640;23.372;2023-07-08T09:49:15;9.63;;;5.97;;
69369;SDS011;56530;42.640;23.372;2023-07-08T09:52:02;5.90;;;5.40;;
69369;SDS011;56530;42.640;23.372;2023-07-08T09:54:28;8.05;;;6.28;;
69369;SDS011;56530;42.640;23.372;2023-07-08T09:57:03;6.80;;;5.60;;
69369;SDS011;56530;42.640;23.372;2023-07-08T09:59:37;6.82;;;5.65;;
69369;SDS011;56530;42.640;23.372;2023-07-08T10:02:17;6.03;;;5.50;;
69369;SDS011;56530;42.640;23.372;2023-07-08T10:04:59;5.90;;;5.30;;
69369;SDS011;56530;42.640;23.372;2023-07-08T10:07:27;6.10;;;5.50;;
69369;SDS011;56530;42.640;23.372;2023-07-08T10:09:54;6.78;;;5.32;;
69369;SDS011;56530;42.640;23.372;2023-07-08T10:12:22;6.95;;;6.00;;
69369;SDS011;56530;42.640;23.372;2023-07-08T10:15:35;11.23;;;5.70;;
69369;SDS011;56530;42.640;23.372;2023-07-08T10:17:53;6.25;;;5.07;;
69369;SDS011;56530;42.640;23.372;2023-07-08T10:20:19;6.20;;;5.10;;
69369;SDS011;56530;42.640;23.372;2023-07-08T10:22:58;8.00;;;5.80;;
69369;SDS011;56530;42.640;23.372;2023-07-08T10:25:29;6.13;;;5.37;;
69369;SDS011;56530;42.640;23.372;2023-07-08T10:28:03;5.70;;;5.10;;
69369;SDS011;56530;42.640;23.372;2023-07-08T10:33:36;5.50;;;5.07;;
69369;SDS011;56530;42.640;23.372;2023-07-08T10:41:56;7.75;;;4.95;;
69369;SDS011;56530;42.640;23.372;2023-07-08T11:05:44;5.32;;;4.90;;
69369;SDS011;56530;42.640;23.372;2023-07-08T11:08:22;4.75;;;4.38;;
69369;SDS011;56530;42.640;23.372;2023-07-08T11:13:26;5.40;;;4.80;;
69369;SDS011;56530;42.640;23.372;2023-07-08T11:18:30;6.57;;;4.70;;
69369;SDS011;56530;42.640;23.372;2023-07-08T11:26:28;11.52;;;4.88;;
69369;SDS011;56530;42.640;23.372;2023-07-08T11:28:59;5.57;;;5.07;;
69369;SDS011;56530;42.640;23.372;2023-07-08T11:31:27;5.88;;;4.60;;
69369;SDS011;56530;42.640;23.372;2023-07-08T11:33:55;6.32;;;4.63;;
69369;SDS011;56530;42.640;23.372;2023-07-08T11:36:22;7.37;;;4.13;;
69369;SDS011;56530;42.640;23.372;2023-07-08T11:38:49;6.65;;;4.72;;
69369;SDS011;56530;42.640;23.372;2023-07-08T11:41:17;4.85;;;4.45;;
69369;SDS011;56530;42.640;23.372;2023-07-08T11:43:52;7.63;;;5.47;;
69369;SDS011;56530;42.640;23.372;2023-07-08T11:46:22;5.30;;;4.80;;
69369;SDS011;56530;42.640;23.372;2023-07-08T11:48:51;5.90;;;5.32;;
69369;SDS011;56530;42.640;23.372;2023-07-08T11:51:19;5.33;;;4.83;;
69369;SDS011;56530;42.640;23.372;2023-07-08T11:53:48;7.07;;;4.40;;
69369;SDS011;56530;42.640;23.372;2023-07-08T12:03:49;5.40;;;4.90;;
69369;SDS011;56530;42.640;23.372;2023-07-08T12:08:55;7.45;;;4.88;;
69369;SDS011;56530;42.640;23.372;2023-07-08T12:11:30;6.10;;;4.25;;
69369;SDS011;56530;42.640;23.372;2023-07-08T12:14:02;4.72;;;4.30;;
69369;SDS011;56530;42.640;23.372;2023-07-08T12:16:28;4.68;;;4.28;;
69369;SDS011;56530;42.640;23.372;2023-07-08T12:18:54;4.43;;;4.03;;
69369;SDS011;56530;42.640;23.372;2023-07-08T12:21:22;5.97;;;4.28;;
69369;SDS011;56530;42.640;23.372;2023-07-08T12:23:48;4.45;;;4.05;;
69369;SDS011;56530;42.640;23.372;2023-07-08T12:26:14;4.53;;;4.13;;
69369;SDS011;56530;42.640;23.372;2023-07-08T12:28:40;4.30;;;3.90;;
69369;SDS011;56530;42.640;23.372;2023-07-08T12:31:13;4.82;;;4.38;;
69369;SDS011;56530;42.640;23.372;2023-07-08T12:33:41;5.30;;;4.40;;
69369;SDS011;56530;42.640;23.372;2023-07-08T12:36:09;4.55;;;3.85;;
69369;SDS011;56530;42.640;23.372;2023-07-08T12:38:42;6.50;;;5.82;;
69369;SDS011;56530;42.640;23.372;2023-07-08T12:41:17;6.97;;;4.40;;
69369;SDS011;56530;42.640;23.372;2023-07-08T12:43:46;4.72;;;4.22;;
69369;SDS011;56530;42.640;23.372;2023-07-08T12:46:13;7.90;;;4.32;;
69369;SDS011;56530;42.640;23.372;2023-07-08T12:48:39;4.45;;;3.60;;
69369;SDS011;56530;42.640;23.372;2023-07-08T12:51:06;4.33;;;3.93;;
69369;SDS011;56530;42.640;23.372;2023-07-08T12:53:35;5.30;;;4.20;;
69369;SDS011;56530;42.640;23.372;2023-07-08T12:56:01;4.50;;;3.83;;
69369;SDS011;56530;42.640;23.372;2023-07-08T12:58:29;5.43;;;4.00;;
69369;SDS011;56530;42.640;23.372;2023-07-08T13:00:56;4.23;;;3.83;;
69369;SDS011;56530;42.640;23.372;2023-07-08T13:03:23;7.20;;;4.07;;
69369;SDS011;56530;42.640;23.372;2023-07-08T13:05:50;4.18;;;3.78;;
69369;SDS011;56530;42.640;23.372;2023-07-08T13:08:17;6.28;;;3.67;;
69369;SDS011;56530;42.640;23.372;2023-07-08T13:10:44;3.75;;;3.45;;
69369;SDS011;56530;42.640;23.372;2023-07-08T13:13:16;6.50;;;3.87;;
69369;SDS011;56530;42.640;23.372;2023-07-08T13:15:45;5.00;;;3.58;;
69369;SDS011;56530;42.640;23.372;2023-07-08T13:18:31;6.00;;;3.85;;
69369;SDS011;56530;42.640;23.372;2023-07-08T13:21:04;3.93;;;3.33;;
69369;SDS011;56530;42.640;23.372;2023-07-08T13:23:31;3.83;;;3.47;;
69369;SDS011;56530;42.640;23.372;2023-07-08T13:25:57;6.35;;;4.05;;
69369;SDS011;56530;42.640;23.372;2023-07-08T13:30:56;6.30;;;3.60;;
69369;SDS011;56530;42.640;23.372;2023-07-08T13:33:28;5.75;;;4.72;;
69369;SDS011;56530;42.640;23.372;2023-07-08T13:35:54;4.95;;;3.60;;
69369;SDS011;56530;42.640;23.372;2023-07-08T13:38:22;6.67;;;4.03;;
69369;SDS011;56530;42.640;23.372;2023-07-08T13:41:00;5.53;;;4.20;;
69369;SDS011;56530;42.640;23.372;2023-07-08T13:43:34;5.60;;;3.80;;
69369;SDS011;56530;42.640;23.372;2023-07-08T13:46:01;6.68;;;4.07;;
69369;SDS011;56530;42.640;23.372;2023-07-08T13:51:07;4.25;;;3.55;;
69369;SDS011;56530;42.640;23.372;2023-07-08T13:56:19;8.00;;;4.22;;
69369;SDS011;56530;42.640;23.372;2023-07-08T13:58:46;4.03;;;3.50;;
69369;SDS011;56530;42.640;23.372;2023-07-08T14:01:19;4.18;;;3.47;;
69369;SDS011;56530;42.640;23.372;2023-07-08T14:03:47;6.25;;;3.47;;
69369;SDS011;56530;42.640;23.372;2023-07-08T14:06:16;6.22;;;3.58;;
69369;SDS011;56530;42.640;23.372;2023-07-08T14:08:43;4.20;;;3.70;;
69369;SDS011;56530;42.640;23.372;2023-07-08T14:11:09;3.57;;;3.27;;
69369;SDS011;56530;42.640;23.372;2023-07-08T14:13:34;4.57;;;3.63;;
69369;SDS011;56530;42.640;23.372;2023-07-08T14:16:00;6.20;;;3.53;;
69369;SDS011;56530;42.640;23.372;2023-07-08T14:18:26;7.53;;;3.70;;
69369;SDS011;56530;42.640;23.372;2023-07-08T14:20:51;6.80;;;4.53;;
69369;SDS011;56530;42.640;23.372;2023-07-08T14:23:18;5.87;;;3.80;;
69369;SDS011;56530;42.640;23.372;2023-07-08T14:25:44;5.72;;;4.30;;
69369;SDS011;56530;42.640;23.372;2023-07-08T14:28:10;3.97;;;3.63;;
69369;SDS011;56530;42.640;23.372;2023-07-08T14:30:37;4.50;;;3.53;;
69369;SDS011;56530;42.640;23.372;2023-07-08T14:33:08;3.92;;;3.58;;
69369;SDS011;56530;42.640;23.372;2023-07-08T14:35:36;4.63;;;3.80;;
69369;SDS011;56530;42.640;23.372;2023-07-08T14:38:02;4.22;;;3.17;;
69369;SDS011;56530;42.640;23.372;2023-07-08T14:40:35;4.70;;;3.25;;
69369;SDS011;56530;42.640;23.372;2023-07-08T14:43:10;7.88;;;3.45;;
69369;SDS011;56530;42.640;23.372;2023-07-08T14:45:41;4.13;;;3.72;;
69369;SDS011;56530;42.640;23.372;2023-07-08T14:48:10;4.00;;;3.50;;
69369;SDS011;56530;42.640;23.372;2023-07-08T14:50:36;5.10;;;4.30;;
69369;SDS011;56530;42.640;23.372;2023-07-08T14:53:01;4.90;;;4.00;;
69369;SDS011;56530;42.640;23.372;2023-07-08T14:55:27;6.32;;;4.13;;
69369;SDS011;56530;42.640;23.372;2023-07-08T14:57:53;12.67;;;4.73;;
69369;SDS011;56530;42.640;23.372;2023-07-08T15:00:20;29.60;;;5.40;;
69369;SDS011;56530;42.640;23.372;2023-07-08T15:02:46;4.37;;;3.63;;
69369;SDS011;56530;42.640;23.372;2023-07-08T15:05:19;7.53;;;4.13;;
69369;SDS011;56530;42.640;23.372;2023-07-08T15:07:50;4.32;;;3.92;;
69369;SDS011;56530;42.640;23.372;2023-07-08T15:10:15;4.55;;;3.60;;
69369;SDS011;56530;42.640;23.372;2023-07-08T15:12:42;7.50;;;3.90;;
69369;SDS011;56530;42.640;23.372;2023-07-08T15:15:17;8.30;;;4.32;;
69369;SDS011;56530;42.640;23.372;2023-07-08T15:17:47;6.83;;;3.80;;
69369;SDS011;56530;42.640;23.372;2023-07-08T15:20:13;6.32;;;3.85;;
69369;SDS011;56530;42.640;23.372;2023-07-08T15:22:40;5.10;;;4.20;;
69369;SDS011;56530;42.640;23.372;2023-07-08T15:25:09;4.45;;;4.03;;
69369;SDS011;56530;42.640;23.372;2023-07-08T15:27:35;5.15;;;3.97;;
69369;SDS011;56530;42.640;23.372;2023-07-08T15:30:01;6.20;;;3.63;;
69369;SDS011;56530;42.640;23.372;2023-07-08T15:32:27;9.90;;;3.93;;
69369;SDS011;56530;42.640;23.372;2023-07-08T15:34:52;7.60;;;3.73;;
69369;SDS011;56530;42.640;23.372;2023-07-08T15:37:18;15.60;;;4.53;;
69369;SDS011;56530;42.640;23.372;2023-07-08T15:39:44;7.47;;;4.63;;
69369;SDS011;56530;42.640;23.372;2023-07-08T15:42:10;11.93;;;5.80;;
69369;SDS011;56530;42.640;23.372;2023-07-08T15:44:36;6.50;;;4.32;;
69369;SDS011;56530;42.640;23.372;2023-07-08T15:47:02;5.43;;;4.43;;